Time;durP1;ratioP1;P1;durP2;ratioP2;P2;SDS_P1;SDS_P2;PMS_P1;PMS_P2;Temp;Humidity;BMP_temperature;BMP_pressure;BME280_temperature;BME280_humidity;BME280_pressure;Samples;Min_cycle;Max_cycle;Signal;HPM_P1;HPM_P2
2022/02/27 00:00:08;;;;;;;23.30;10.23;;;;;;;4.42;54.65;94276.75;5063701;28;20021;-73
2022/02/27 00:02:33;;;;;;;20.10;10.10;;;;;;;4.40;54.46;94287.56;5063656;28;20012;-73
2022/02/27 00:04:59;;;;;;;19.50;9.68;;;;;;;4.32;54.68;94284.66;5063488;28;20017;-73
2022/02/27 00:07:25;;;;;;;24.92;10.32;;;;;;;4.34;54.71;94280.69;5063796;28;20035;-73
2022/02/27 00:09:50;;;;;;;23.48;10.02;;;;;;;4.33;54.47;94273.03;5063658;28;20035;-73
2022/02/27 00:12:16;;;;;;;22.20;9.38;;;;;;;4.33;54.64;94278.31;5063139;28;20389;-73
2022/02/27 00:14:41;;;;;;;24.35;10.65;;;;;;;4.31;54.62;94264.59;5063431;28;20016;-73
2022/02/27 00:17:07;;;;;;;31.25;10.45;;;;;;;4.27;54.27;94259.03;5062198;28;20028;-73
2022/02/27 00:19:32;;;;;;;20.15;9.93;;;;;;;4.19;54.43;94259.56;5063454;28;20021;-73
2022/02/27 00:21:58;;;;;;;30.83;11.77;;;;;;;4.11;54.92;94250.34;5062897;28;20032;-73
2022/02/27 00:24:24;;;;;;;22.80;11.27;;;;;;;4.11;54.97;94245.06;5063393;28;20021;-73
2022/02/27 00:26:49;;;;;;;19.17;9.73;;;;;;;4.04;54.91;94241.09;5063292;28;20080;-73
2022/02/27 00:29:15;;;;;;;25.42;10.82;;;;;;;3.99;55.49;94245.31;5062113;28;20048;-73
2022/02/27 00:31:41;;;;;;;26.10;11.48;;;;;;;3.99;55.28;94240.03;5062880;28;20029;-73
2022/02/27 00:34:06;;;;;;;23.30;10.32;;;;;;;4.04;55.20;94241.09;5063168;28;20031;-73
2022/02/27 00:36:32;;;;;;;30.10;11.50;;;;;;;4.04;55.61;94236.59;5063138;28;20013;-73
2022/02/27 00:38:57;;;;;;;24.48;10.48;;;;;;;4.06;55.29;94244.25;5063023;28;20243;-73
2022/02/27 00:41:23;;;;;;;27.83;11.48;;;;;;;4.05;55.42;94232.91;5062966;28;20196;-73
2022/02/27 00:43:48;;;;;;;30.75;11.77;;;;;;;4.06;55.53;94237.13;5063021;28;20051;-73
2022/02/27 00:46:14;;;;;;;22.08;10.70;;;;;;;4.10;55.52;94230.28;5062993;28;20017;-73
2022/02/27 00:48:39;;;;;;;25.75;10.95;;;;;;;4.09;55.29;94220.78;5062994;28;20334;-73
2022/02/27 00:51:05;;;;;;;21.08;9.70;;;;;;;4.07;55.33;94196.53;5063058;28;20080;-73
2022/02/27 00:53:31;;;;;;;25.63;11.13;;;;;;;4.00;55.72;94211.81;5062878;28;20020;-73
2022/02/27 00:55:56;;;;;;;21.88;10.45;;;;;;;4.05;55.45;94206.53;5062944;28;20021;-81
2022/02/27 00:58:22;;;;;;;25.75;10.88;;;;;;;4.05;55.73;94203.91;5062970;28;20169;-73
2022/02/27 01:00:47;;;;;;;25.35;11.32;;;;;;;4.11;55.46;94205.50;5062557;28;20027;-73
2022/02/27 01:03:12;;;;;;;23.45;11.20;;;;;;;4.09;55.40;94210.25;5062700;28;20020;-73
2022/02/27 01:05:38;;;;;;;25.63;11.18;;;;;;;4.16;55.36;94220.53;5062745;28;20041;-72
2022/02/27 01:08:04;;;;;;;25.77;11.98;;;;;;;4.12;55.37;94217.59;5062567;28;20067;-72
2022/02/27 01:10:30;;;;;;;24.75;11.13;;;;;;;4.18;55.24;94229.75;5062599;28;20100;-72
2022/02/27 01:12:56;;;;;;;23.95;11.00;;;;;;;4.15;55.59;94222.38;5062618;28;20339;-72
2022/02/27 01:15:21;;;;;;;23.38;11.43;;;;;;;4.14;55.52;94226.06;5062701;28;20028;-73
2022/02/27 01:17:47;;;;;;;24.60;11.10;;;;;;;4.22;55.15;94233.44;5062315;28;20037;-72
2022/02/27 01:20:13;;;;;;;23.35;11.30;;;;;;;4.21;55.18;94223.16;5062535;28;20021;-72
2022/02/27 01:22:38;;;;;;;24.73;11.93;;;;;;;4.21;55.26;94205.50;5062581;28;20310;-73
2022/02/27 01:25:05;;;;;;;21.45;10.68;;;;;;;4.19;55.37;94215.50;5062534;28;20096;-73
2022/02/27 01:27:31;;;;;;;27.77;11.48;;;;;;;4.20;55.38;94232.91;5062388;28;20040;-72
2022/02/27 01:29:57;;;;;;;29.25;12.80;;;;;;;4.13;55.59;94227.13;5062655;28;20025;-73
2022/02/27 01:32:22;;;;;;;22.10;11.75;;;;;;;4.14;55.56;94228.69;5062260;28;20036;-73
2022/02/27 01:34:48;;;;;;;21.17;11.95;;;;;;;4.13;55.63;94221.84;5065341;28;20041;-72
2022/02/27 01:37:16;;;;;;;24.77;11.73;;;;;;;4.16;55.56;94216.03;5066266;28;20047;-73
2022/02/27 01:39:41;;;;;;;28.30;12.00;;;;;;;4.17;55.30;94217.63;5066234;28;20017;-73
2022/02/27 01:42:11;;;;;;;24.88;11.55;;;;;;;4.15;55.55;94193.34;5066379;28;20303;-72
2022/02/27 01:44:38;;;;;;;21.90;10.50;;;;;;;4.09;55.61;94194.41;5066362;28;20027;-73
2022/02/27 01:47:10;;;;;;;22.02;10.15;;;;;;;4.10;54.88;94185.44;5066188;28;20139;-72
2022/02/27 01:49:35;;;;;;;21.40;10.27;;;;;;;4.04;55.09;94191.75;5066274;28;20051;-72
2022/02/27 01:52:03;;;;;;;24.27;10.63;;;;;;;4.07;55.36;94199.16;5066020;28;20028;-72
2022/02/27 01:54:30;;;;;;;26.23;10.77;;;;;;;4.06;55.13;94210.75;5066023;28;20307;-72
2022/02/27 01:56:56;;;;;;;21.08;10.50;;;;;;;4.09;54.95;94198.88;5066193;28;20139;-72
2022/02/27 01:59:21;;;;;;;22.42;10.77;;;;;;;4.13;54.75;94192.81;5066077;28;20032;-72
2022/02/27 02:01:47;;;;;;;19.58;9.63;;;;;;;4.09;54.71;94199.69;5065910;28;20025;-72
2022/02/27 02:04:12;;;;;;;22.92;9.80;;;;;;;4.12;54.48;94183.31;5065690;28;20074;-72
2022/02/27 02:06:38;;;;;;;24.00;10.88;;;;;;;4.08;54.59;94189.38;5065887;28;20039;-72
2022/02/27 02:09:04;;;;;;;23.95;11.30;;;;;;;4.05;54.49;94209.19;5065842;28;20044;-72
2022/02/27 02:11:29;;;;;;;20.77;9.98;;;;;;;4.03;54.50;94227.13;5065773;28;20048;-72
2022/02/27 02:13:55;;;;;;;20.98;10.50;;;;;;;3.97;54.68;94222.88;5064691;28;20325;-72
2022/02/27 02:16:21;;;;;;;24.73;10.18;;;;;;;3.93;54.69;94227.06;5065609;28;20016;-72
2022/02/27 02:18:47;;;;;;;23.25;10.50;;;;;;;3.82;54.77;94208.59;5065536;28;20059;-72
2022/02/27 02:21:12;;;;;;;22.38;9.80;;;;;;;3.77;54.77;94192.78;5065662;28;20021;-72
2022/02/27 02:23:38;;;;;;;24.42;10.23;;;;;;;3.70;54.79;94170.38;5065455;28;20262;-72
2022/02/27 02:26:04;;;;;;;29.50;10.82;;;;;;;3.64;54.96;94169.56;5065675;28;20318;-72
2022/02/27 02:28:29;;;;;;;20.17;9.70;;;;;;;3.73;54.95;94156.69;5065527;28;20049;-72
2022/02/27 02:30:55;;;;;;;21.88;9.55;;;;;;;3.73;54.73;94148.75;5065499;28;20220;-72
2022/02/27 02:33:33;;;;;;;16.38;8.25;;;;;;;3.73;54.53;94165.38;5065349;28;20039;-73
2022/02/27 02:35:59;;;;;;;23.33;9.55;;;;;;;3.67;55.04;94182.22;5065506;28;20028;-73
2022/02/27 02:38:26;;;;;;;21.38;9.63;;;;;;;3.70;54.90;94202.00;5065435;28;20257;-73
2022/02/27 02:40:51;;;;;;;21.65;10.73;;;;;;;3.72;55.03;94198.03;5065330;28;20032;-73
2022/02/27 02:43:17;;;;;;;20.42;9.60;;;;;;;3.68;55.10;94227.84;5065071;28;20044;-73
2022/02/27 02:45:42;;;;;;;24.80;10.48;;;;;;;3.65;55.25;94241.53;5064768;28;20024;-72
2022/02/27 02:48:08;;;;;;;21.75;10.63;;;;;;;3.62;55.64;94261.28;5064947;28;20337;-72
2022/02/27 02:50:33;;;;;;;19.15;10.88;;;;;;;3.64;55.56;94261.03;5065050;28;20088;-72
2022/02/27 02:52:58;;;;;;;21.60;10.63;;;;;;;3.61;55.68;94270.25;5065298;28;20013;-72
2022/02/27 02:55:24;;;;;;;22.58;10.80;;;;;;;3.64;55.59;94263.69;5064758;28;20200;-72
2022/02/27 02:57:50;;;;;;;23.52;11.00;;;;;;;3.59;55.43;94240.72;5064949;28;20253;-72
2022/02/27 03:00:16;;;;;;;22.98;10.18;;;;;;;3.60;55.63;94247.56;5064975;28;20084;-72
2022/02/27 03:02:41;;;;;;;28.77;11.02;;;;;;;3.57;56.00;94250.75;5064680;28;20308;-72
2022/02/27 03:05:07;;;;;;;29.33;10.18;;;;;;;3.65;55.83;94246.81;5064677;28;20051;-72
2022/02/27 03:07:34;;;;;;;23.83;9.90;;;;;;;3.68;55.89;94238.38;5064765;28;20044;-72
2022/02/27 03:10:00;;;;;;;18.42;9.13;;;;;;;3.70;55.58;94247.59;5064839;28;20025;-72
2022/02/27 03:12:25;;;;;;;22.20;10.52;;;;;;;3.70;55.77;94250.25;5064729;28;20074;-72
2022/02/27 03:14:51;;;;;;;22.30;9.98;;;;;;;3.74;55.76;94256.56;5064686;28;20032;-72
2022/02/27 03:17:17;;;;;;;26.50;10.52;;;;;;;3.75;55.45;94263.44;5064525;28;20231;-73
2022/02/27 03:19:42;;;;;;;24.70;11.35;;;;;;;3.79;55.62;94259.25;5064405;28;20138;-73
2022/02/27 03:22:07;;;;;;;27.55;11.52;;;;;;;3.81;55.55;94272.16;5064684;28;20044;-73
2022/02/27 03:24:33;;;;;;;24.00;10.38;;;;;;;3.85;55.78;94273.22;5064589;28;20323;-73
2022/02/27 03:26:58;;;;;;;23.92;11.00;;;;;;;3.85;55.63;94261.88;5064553;28;20035;-73
2022/02/27 03:29:24;;;;;;;22.73;11.10;;;;;;;3.82;55.69;94269.25;5064286;28;20033;-73
2022/02/27 03:31:49;;;;;;;25.02;11.68;;;;;;;3.78;56.05;94255.00;5064291;28;20032;-73
2022/02/27 03:34:15;;;;;;;23.55;11.20;;;;;;;3.85;56.02;94261.88;5064168;28;20039;-74
2022/02/27 03:36:40;;;;;;;24.55;11.75;;;;;;;3.80;56.04;94249.47;5064155;28;20033;-73
2022/02/27 03:39:06;;;;;;;28.17;11.38;;;;;;;3.70;56.40;94258.16;5064155;28;20016;-74
2022/02/27 03:41:31;;;;;;;29.70;12.65;;;;;;;3.73;56.00;94254.22;5064104;28;20062;-73
2022/02/27 03:43:57;;;;;;;25.10;11.88;;;;;;;3.68;56.42;94241.00;5064145;28;20027;-73
2022/02/27 03:46:22;;;;;;;27.45;12.02;;;;;;;3.69;56.48;94238.13;5064158;28;20327;-73
2022/02/27 03:48:48;;;;;;;23.75;11.32;;;;;;;3.72;56.53;94240.22;5063812;28;20051;-74
2022/02/27 03:51:13;;;;;;;25.48;11.70;;;;;;;3.74;56.36;94246.03;5063806;28;20028;-74
2022/02/27 03:53:39;;;;;;;23.23;11.15;;;;;;;3.67;56.90;94245.50;5064007;28;20055;-74
2022/02/27 03:56:04;;;;;;;24.10;12.32;;;;;;;3.68;56.68;94254.97;5063072;28;20041;-74
2022/02/27 03:58:29;;;;;;;26.88;11.93;;;;;;;3.67;57.04;94250.78;5063979;28;20319;-74
2022/02/27 04:00:55;;;;;;;26.77;11.90;;;;;;;3.64;56.97;94230.19;5063744;28;20057;-73
2022/02/27 04:03:20;;;;;;;23.52;10.32;;;;;;;3.67;57.06;94223.63;5063587;28;20320;-73
2022/02/27 04:05:46;;;;;;;23.15;11.35;;;;;;;3.67;57.33;94216.50;5063521;28;20032;-74
2022/02/27 04:08:11;;;;;;;24.35;11.70;;;;;;;3.59;57.74;94220.44;5063587;28;20280;-73
2022/02/27 04:10:37;;;;;;;26.73;12.90;;;;;;;3.59;57.85;94233.63;5063654;28;20024;-73
2022/02/27 04:13:03;;;;;;;23.13;12.05;;;;;;;3.60;57.89;94242.31;5063367;28;20044;-73
2022/02/27 04:15:28;;;;;;;23.77;12.05;;;;;;;3.58;58.04;94237.31;5063684;28;20037;-73
2022/02/27 04:17:54;;;;;;;34.00;12.45;;;;;;;3.56;58.17;94257.88;5063320;28;20020;-73
2022/02/27 04:20:19;;;;;;;22.45;11.57;;;;;;;3.60;58.26;94255.47;5063338;28;20331;-74
2022/02/27 04:22:45;;;;;;;26.88;12.30;;;;;;;3.55;58.24;94252.84;5063203;28;20017;-74
2022/02/27 04:25:11;;;;;;;28.63;12.40;;;;;;;3.57;58.41;94241.00;5063462;28;20029;-74
2022/02/27 04:27:36;;;;;;;23.83;10.93;;;;;;;3.58;58.36;94247.84;5063292;28;20211;-74
2022/02/27 04:30:03;;;;;;;25.08;13.00;;;;;;;3.51;58.51;94249.16;5063282;28;20021;-74
2022/02/27 04:32:29;;;;;;;27.95;13.18;;;;;;;3.47;58.94;94255.97;5063164;28;20258;-73
2022/02/27 04:34:54;;;;;;;22.77;12.40;;;;;;;3.44;59.18;94256.47;5063176;28;20036;-74
2022/02/27 04:37:21;;;;;;;28.48;13.23;;;;;;;3.35;59.64;94259.63;5062827;28;20024;-74
2022/02/27 04:39:46;;;;;;;28.60;12.02;;;;;;;3.32;59.82;94249.59;5062897;28;20044;-73
2022/02/27 04:42:12;;;;;;;21.90;11.13;;;;;;;3.40;59.48;94246.47;5062888;28;20311;-73
2022/02/27 04:44:38;;;;;;;24.35;12.43;;;;;;;3.36;59.66;94237.50;5062840;28;20372;-73
2022/02/27 04:47:03;;;;;;;21.65;11.45;;;;;;;3.44;59.77;94230.13;5062759;28;20028;-73
2022/02/27 04:49:29;;;;;;;24.00;12.02;;;;;;;3.41;59.89;94232.22;5061755;28;20100;-73
2022/02/27 04:51:54;;;;;;;31.50;13.27;;;;;;;3.40;60.20;94245.69;5062572;28;20028;-73
2022/02/27 04:54:20;;;;;;;28.92;12.48;;;;;;;3.39;61.24;94228.28;5062425;28;20100;-73
2022/02/27 04:56:46;;;;;;;25.70;12.60;;;;;;;3.34;61.86;94221.16;5062662;28;20036;-74
2022/02/27 04:59:11;;;;;;;25.30;12.88;;;;;;;3.32;62.03;94223.25;5062440;28;20063;-74
2022/02/27 05:01:39;;;;;;;21.95;12.75;;;;;;;3.32;62.79;94223.25;5062520;28;20021;-74
2022/02/27 05:04:04;;;;;;;23.98;12.43;;;;;;;3.24;63.51;94228.22;5062406;28;20029;-74
2022/02/27 05:06:30;;;;;;;22.65;12.30;;;;;;;3.30;64.09;94225.38;5062874;28;20044;-74
2022/02/27 05:08:55;;;;;;;25.58;12.48;;;;;;;3.31;64.34;94224.28;5062317;28;20319;-74
2022/02/27 05:11:21;;;;;;;24.70;12.25;;;;;;;3.33;65.16;94216.16;5061326;28;20041;-73
2022/02/27 05:13:46;;;;;;;27.75;13.00;;;;;;;3.37;65.30;94228.53;5062442;28;20033;-73
2022/02/27 05:16:12;;;;;;;30.10;12.85;;;;;;;3.35;65.66;94243.03;5062383;28;20100;-73
2022/02/27 05:18:37;;;;;;;32.95;13.80;;;;;;;3.34;66.17;94231.69;5062688;28;20063;-73
2022/02/27 05:21:02;;;;;;;28.15;13.45;;;;;;;3.30;66.51;94225.38;5062657;28;20368;-73
2022/02/27 05:23:28;;;;;;;28.45;13.77;;;;;;;3.26;67.32;94220.84;5062297;28;20082;-73
2022/02/27 05:25:58;;;;;;;29.48;14.25;;;;;;;3.28;67.65;94237.19;5062243;28;20028;-73
2022/02/27 05:28:27;;;;;;;23.45;14.13;;;;;;;3.19;68.18;94245.59;5062549;28;20031;-73
2022/02/27 05:30:54;;;;;;;28.77;14.15;;;;;;;3.16;68.68;94255.88;5062394;28;20025;-73
2022/02/27 05:33:19;;;;;;;31.60;14.95;;;;;;;3.09;69.09;94260.56;5062466;28;20029;-73
2022/02/27 05:35:45;;;;;;;30.58;14.88;;;;;;;3.00;69.66;94247.09;5062354;28;20082;-74
2022/02/27 05:38:10;;;;;;;32.22;15.13;;;;;;;2.96;70.38;94231.00;5062374;28;20044;-73
2022/02/27 05:40:36;;;;;;;30.42;14.75;;;;;;;2.96;70.76;94232.84;5062315;28;20153;-72
2022/02/27 05:43:01;;;;;;;27.45;14.35;;;;;;;2.92;71.09;94227.28;5062588;28;20039;-73
2022/02/27 05:45:27;;;;;;;29.45;13.55;;;;;;;2.88;70.74;94222.81;5062256;28;20013;-72
2022/02/27 05:47:52;;;;;;;28.75;13.90;;;;;;;2.76;71.49;94228.25;5062345;28;20032;-72
2022/02/27 05:50:18;;;;;;;30.95;14.93;;;;;;;2.71;71.96;94233.50;5061003;28;20250;-73
2022/02/27 05:52:47;;;;;;;28.35;13.40;;;;;;;2.70;71.80;94224.00;5062273;28;20242;-74
2022/02/27 05:55:13;;;;;;;23.85;12.50;;;;;;;2.60;72.35;94220.25;5062069;28;20021;-73
2022/02/27 05:57:38;;;;;;;26.30;14.18;;;;;;;2.61;72.63;94229.75;5062068;28;20223;-73
2022/02/27 06:00:05;;;;;;;27.60;11.95;;;;;;;2.59;72.94;94231.06;5061984;28;20021;-73
2022/02/27 06:02:31;;;;;;;19.98;11.82;;;;;;;2.57;73.40;94233.94;5062234;28;20097;-73
2022/02/27 06:04:56;;;;;;;24.83;12.85;;;;;;;2.53;73.55;94222.34;5062136;28;20326;-73
2022/02/27 06:07:22;;;;;;;25.20;12.52;;;;;;;2.40;73.62;94230.66;5062047;28;20020;-73
2022/02/27 06:09:47;;;;;;;24.77;13.27;;;;;;;2.30;74.04;94235.84;5062030;28;20016;-73
2022/02/27 06:12:13;;;;;;;25.17;13.10;;;;;;;2.32;74.33;94239.00;5061872;28;20041;-73
2022/02/27 06:14:38;;;;;;;25.25;14.38;;;;;;;2.17;74.63;94245.75;5062102;28;20251;-73
2022/02/27 06:17:04;;;;;;;27.25;13.00;;;;;;;2.15;75.18;94250.47;5062185;28;20040;-73
2022/02/27 06:19:29;;;;;;;24.88;13.07;;;;;;;2.10;75.78;94260.94;5062434;28;20041;-73
2022/02/27 06:21:54;;;;;;;22.38;12.57;;;;;;;2.11;75.80;94257.25;5065875;28;20017;-71
2022/02/27 06:24:20;;;;;;;25.70;12.35;;;;;;;2.07;75.62;94247.50;5065079;28;20376;-72
2022/02/27 06:26:45;;;;;;;21.92;12.70;;;;;;;2.06;75.92;94232.78;5065499;28;20071;-72
2022/02/27 06:29:11;;;;;;;25.23;13.52;;;;;;;2.07;76.22;94244.88;5065468;28;20031;-71
2022/02/27 06:31:36;;;;;;;22.55;11.35;;;;;;;2.06;76.21;94251.19;5065384;28;20091;-72
2022/02/27 06:34:02;;;;;;;20.52;12.07;;;;;;;2.09;76.40;94253.31;5065537;28;20025;-73
2022/02/27 06:36:30;;;;;;;28.05;13.25;;;;;;;2.16;76.29;94248.66;5065475;28;20024;-73
2022/02/27 06:38:56;;;;;;;22.13;12.32;;;;;;;2.16;76.13;94246.00;5065316;28;20025;-72
2022/02/27 06:41:23;;;;;;;23.13;13.05;;;;;;;2.07;76.09;94240.41;5065251;28;20028;-71
2022/02/27 06:43:48;;;;;;;22.88;12.32;;;;;;;2.03;76.22;94244.56;5065224;28;20210;-73
2022/02/27 06:46:14;;;;;;;29.88;14.02;;;;;;;2.00;76.48;94240.63;5065152;28;20028;-74
2022/02/27 06:48:39;;;;;;;28.35;14.88;;;;;;;2.07;76.58;94248.28;5064701;28;20063;-73
2022/02/27 06:51:05;;;;;;;29.15;13.43;;;;;;;2.09;76.47;94256.72;5063403;28;20036;-72
2022/02/27 06:53:31;;;;;;;28.65;14.88;;;;;;;2.07;76.45;94247.50;5063133;28;20029;-73
2022/02/27 06:55:56;;;;;;;28.65;14.30;;;;;;;2.09;76.53;94242.78;5063224;28;20028;-73
2022/02/27 06:58:22;;;;;;;26.20;14.20;;;;;;;2.09;76.33;94254.09;5064161;28;20013;-72
2022/02/27 07:00:47;;;;;;;25.42;12.80;;;;;;;2.08;76.50;94246.47;5064905;28;20048;-73
2022/02/27 07:03:13;;;;;;;26.98;12.48;;;;;;;2.10;76.26;94250.44;5064679;28;20040;-72
2022/02/27 07:05:38;;;;;;;22.83;12.38;;;;;;;2.08;76.39;94257.78;5064705;28;20027;-72
2022/02/27 07:08:04;;;;;;;26.95;12.48;;;;;;;2.04;76.37;94256.69;5064911;28;20024;-72
2022/02/27 07:10:30;;;;;;;24.52;12.57;;;;;;;1.98;76.63;94255.06;5064790;28;20215;-72
2022/02/27 07:12:56;;;;;;;26.27;12.75;;;;;;;2.00;76.96;94250.34;5064359;28;20053;-72
2022/02/27 07:15:21;;;;;;;21.40;12.35;;;;;;;2.03;76.90;94260.34;5064588;28;20016;-72
2022/02/27 07:17:47;;;;;;;21.10;11.63;;;;;;;2.06;76.89;94251.97;5064569;28;20025;-73
2022/02/27 07:20:12;;;;;;;22.27;11.18;;;;;;;2.13;76.60;94260.44;5064333;28;20254;-73
2022/02/27 07:22:38;;;;;;;19.52;10.57;;;;;;;2.07;76.57;94258.03;5064392;28;20021;-72
2022/02/27 07:25:05;;;;;;;21.50;12.23;;;;;;;2.09;76.73;94259.34;5064640;28;20017;-72
2022/02/27 07:27:34;;;;;;;24.50;13.02;;;;;;;2.14;76.52;94261.25;5064059;28;20020;-73
2022/02/27 07:30:00;;;;;;;24.30;11.70;;;;;;;2.16;76.37;94259.16;5064088;28;20016;-72
2022/02/27 07:32:26;;;;;;;23.75;12.02;;;;;;;2.16;76.39;94253.91;5064034;28;20021;-73
2022/02/27 07:34:52;;;;;;;21.05;10.93;;;;;;;2.15;76.42;94255.72;5064045;28;20089;-73
2022/02/27 07:37:17;;;;;;;26.70;13.10;;;;;;;2.14;76.38;94245.47;5063970;28;20047;-73
2022/02/27 07:39:43;;;;;;;26.27;13.00;;;;;;;2.13;76.36;94257.81;5064104;28;20125;-72
2022/02/27 07:42:08;;;;;;;23.52;11.35;;;;;;;2.14;76.85;94256.78;5063986;28;20096;-73
2022/02/27 07:44:34;;;;;;;24.25;12.55;;;;;;;2.12;76.55;94258.88;5064009;28;20029;-73
2022/02/27 07:47:00;;;;;;;26.33;12.45;;;;;;;2.17;76.64;94266.78;5064051;28;20024;-72
2022/02/27 07:49:25;;;;;;;23.33;11.15;;;;;;;2.19;76.58;94264.69;5063775;28;20036;-72
2022/02/27 07:51:52;;;;;;;20.48;10.90;;;;;;;2.24;76.73;94250.81;5062480;28;20096;-72
2022/02/27 07:54:17;;;;;;;22.75;10.77;;;;;;;2.25;76.21;94254.22;5063725;28;20066;-73
2022/02/27 07:56:43;;;;;;;18.15;11.07;;;;;;;2.27;76.10;94239.00;5063713;28;20262;-73
2022/02/27 07:59:10;;;;;;;20.70;11.00;;;;;;;2.31;76.23;94245.34;5063759;28;20028;-73
2022/02/27 08:01:35;;;;;;;21.77;11.90;;;;;;;2.29;76.11;94236.91;5063856;28;20067;-73
2022/02/27 08:04:01;;;;;;;21.52;11.85;;;;;;;2.31;76.06;94250.59;5063712;28;20021;-73
2022/02/27 08:06:26;;;;;;;22.52;12.45;;;;;;;2.35;76.27;94255.09;5063581;28;20013;-73
2022/02/27 08:08:51;;;;;;;25.02;11.88;;;;;;;2.36;75.71;94263.78;5063707;28;20028;-73
2022/02/27 08:11:17;;;;;;;19.20;10.93;;;;;;;2.36;75.73;94263.78;5063328;28;20266;-73
2022/02/27 08:13:42;;;;;;;17.15;10.40;;;;;;;2.36;75.61;94277.75;5063257;28;20218;-73
2022/02/27 08:16:08;;;;;;;23.13;11.30;;;;;;;2.45;75.80;94270.16;5063557;28;20315;-73
2022/02/27 08:18:34;;;;;;;17.17;10.73;;;;;;;2.49;75.31;94273.88;5063453;28;20028;-73
2022/02/27 08:21:00;;;;;;;22.48;10.60;;;;;;;2.55;75.45;94274.72;5063366;28;20210;-73
2022/02/27 08:23:26;;;;;;;20.55;11.52;;;;;;;2.52;75.46;94267.31;5063149;28;20012;-73
2022/02/27 08:25:53;;;;;;;21.13;10.65;;;;;;;2.51;75.04;94253.38;5063377;28;20066;-73
2022/02/27 08:28:19;;;;;;;22.40;11.40;;;;;;;2.49;75.32;94255.47;5063122;28;20108;-73
2022/02/27 08:30:45;;;;;;;21.23;10.18;;;;;;;2.50;75.39;94259.66;5062984;28;20017;-73
2022/02/27 08:33:11;;;;;;;19.40;11.07;;;;;;;2.49;75.23;94258.09;5063185;28;20027;-73
2022/02/27 08:35:36;;;;;;;16.90;9.48;;;;;;;2.48;75.17;94261.75;5063311;28;20043;-73
2022/02/27 08:38:02;;;;;;;18.33;8.63;;;;;;;2.52;75.28;94247.06;5063183;28;20092;-73
2022/02/27 08:40:27;;;;;;;16.15;9.68;;;;;;;2.45;75.28;94248.34;5062893;28;20338;-72
2022/02/27 08:42:58;;;;;;;19.65;10.38;;;;;;;2.39;75.58;94250.91;5061109;28;20016;-72
2022/02/27 08:45:24;;;;;;;16.10;9.45;;;;;;;2.39;75.80;94237.75;5062414;28;20088;-74
2022/02/27 08:47:50;;;;;;;16.75;9.90;;;;;;;2.41;75.78;94242.78;5062771;28;20374;-73
2022/02/27 08:50:16;;;;;;;20.33;9.88;;;;;;;2.42;75.75;94246.97;5062614;28;20029;-73
2022/02/27 08:52:42;;;;;;;20.90;11.95;;;;;;;2.45;75.66;94245.72;5062579;28;20422;-74
2022/02/27 08:55:08;;;;;;;20.88;10.75;;;;;;;2.49;75.66;94247.56;5062769;28;20044;-73
2022/02/27 08:57:34;;;;;;;19.60;11.00;;;;;;;2.53;75.46;94240.75;5062577;28;20087;-73
2022/02/27 08:59:59;;;;;;;21.00;10.48;;;;;;;2.57;75.44;94248.94;5062411;28;20323;-73
2022/02/27 09:02:25;;;;;;;22.48;10.88;;;;;;;2.54;75.54;94239.69;5062655;28;20028;-72
2022/02/27 09:04:50;;;;;;;21.55;9.95;;;;;;;2.52;75.28;94251.53;5062600;28;20059;-73
2022/02/27 09:07:16;;;;;;;21.20;10.93;;;;;;;2.42;75.52;94239.09;5062437;28;20111;-72
2022/02/27 09:09:43;;;;;;;18.70;9.45;;;;;;;2.47;75.60;94248.88;5062297;28;20045;-73
2022/02/27 09:12:09;;;;;;;16.77;9.02;;;;;;;2.55;75.58;94249.19;5062384;28;20318;-73
2022/02/27 09:14:38;;;;;;;22.83;10.30;;;;;;;2.54;75.45;94239.69;5062544;28;20223;-73
2022/02/27 09:17:05;;;;;;;15.23;8.82;;;;;;;2.63;75.91;94244.50;5062447;28;20200;-73
2022/02/27 09:19:31;;;;;;;16.95;9.00;;;;;;;2.67;75.70;94241.13;5062213;28;20028;-73
2022/02/27 09:21:56;;;;;;;14.02;8.15;;;;;;;2.75;75.22;94232.75;5062402;28;20029;-73
2022/02/27 09:24:23;;;;;;;14.68;8.32;;;;;;;2.82;74.92;94227.25;5062095;28;20021;-73
2022/02/27 09:26:48;;;;;;;13.88;8.32;;;;;;;2.84;75.20;94222.50;5062201;28;20025;-73
2022/02/27 09:29:14;;;;;;;18.67;9.05;;;;;;;2.91;74.81;94228.34;5061908;28;20094;-73
2022/02/27 09:31:40;;;;;;;15.82;8.70;;;;;;;3.00;74.72;94226.03;5062191;28;20036;-72
2022/02/27 09:34:06;;;;;;;13.35;9.30;;;;;;;3.06;74.55;94235.53;5062379;28;20021;-74
2022/02/27 09:36:32;;;;;;;18.70;10.90;;;;;;;3.09;74.08;94228.94;5061951;28;20037;-72
2022/02/27 09:38:58;;;;;;;16.20;9.60;;;;;;;3.11;74.22;94225.00;5062186;28;20099;-72
2022/02/27 09:41:26;;;;;;;15.77;9.95;;;;;;;3.10;74.47;94230.56;5062161;28;20017;-72
2022/02/27 09:44:00;;;;;;;14.90;10.07;;;;;;;3.08;74.05;94228.16;5062205;28;20016;-72
2022/02/27 09:46:27;;;;;;;15.20;8.65;;;;;;;3.04;73.97;94236.84;5062080;28;20040;-72
2022/02/27 09:48:53;;;;;;;17.05;9.88;;;;;;;3.06;74.42;94235.53;5061988;28;20120;-72
2022/02/27 09:51:19;;;;;;;15.98;10.00;;;;;;;3.10;74.16;94230.56;5061967;28;20036;-72
2022/02/27 09:53:45;;;;;;;14.30;8.60;;;;;;;3.14;74.09;94240.31;5062025;28;20020;-72
2022/02/27 09:56:10;;;;;;;16.73;9.35;;;;;;;3.17;74.03;94239.00;5065274;28;20094;-71
2022/02/27 09:58:36;;;;;;;16.95;9.13;;;;;;;3.22;73.69;94231.13;5066060;28;20016;-72
2022/02/27 10:01:02;;;;;;;17.27;8.43;;;;;;;3.18;73.43;94232.69;5065739;28;20048;-71
2022/02/27 10:03:31;;;;;;;12.13;7.38;;;;;;;3.16;73.54;94230.31;5065335;28;20024;-73
2022/02/27 10:06:18;;;;;;;14.05;8.23;;;;;;;3.12;73.65;94239.00;5065312;28;20016;-73
2022/02/27 10:08:48;;;;;;;9.75;6.82;;;;;;;3.06;73.92;94224.22;5065563;28;20028;-73
2022/02/27 10:11:18;;;;;;;12.80;7.88;;;;;;;3.06;74.09;94224.22;5065423;28;20028;-73
2022/02/27 10:13:46;;;;;;;13.85;8.18;;;;;;;3.09;75.02;94228.94;5065858;28;20231;-76
2022/02/27 10:16:17;;;;;;;16.10;7.93;;;;;;;3.19;75.65;94229.78;5065938;28;20096;-76
2022/02/27 10:18:46;;;;;;;13.55;7.95;;;;;;;3.29;75.34;94231.66;5066060;28;20035;-76
2022/02/27 10:21:39;;;;;;;19.00;8.57;;;;;;;3.43;75.14;94226.72;5065976;28;20029;-76
2022/02/27 10:24:10;;;;;;;14.13;7.47;;;;;;;3.56;74.37;94226.25;5065942;28;20027;-76
2022/02/27 10:26:40;;;;;;;10.90;6.57;;;;;;;3.69;73.45;94227.56;5066039;28;20104;-76
2022/02/27 10:29:22;;;;;;;13.60;7.72;;;;;;;3.81;72.91;94229.97;5066015;28;20111;-76
2022/02/27 10:31:49;;;;;;;13.98;8.13;;;;;;;3.88;72.21;94227.09;5065881;28;20223;-76
2022/02/27 10:34:36;;;;;;;16.52;8.23;;;;;;;3.92;71.79;94221.00;5065420;28;20033;-76
2022/02/27 10:37:16;;;;;;;11.55;7.13;;;;;;;3.98;71.66;94221.81;5065548;28;20343;-77
2022/02/27 10:39:46;;;;;;;12.13;7.07;;;;;;;4.03;71.11;94211.28;5065541;28;20017;-75
2022/02/27 10:42:27;;;;;;;10.48;6.78;;;;;;;4.09;70.60;94212.88;5065489;28;20023;-75
2022/02/27 10:44:54;;;;;;;11.85;7.28;;;;;;;4.10;70.75;94221.56;5065361;28;20082;-76
2022/02/27 10:47:21;;;;;;;11.50;6.90;;;;;;;4.15;70.63;94211.81;5065224;28;20055;-77
2022/02/27 10:49:47;;;;;;;12.13;7.30;;;;;;;4.20;70.30;94211.03;5065296;28;20033;-76
2022/02/27 10:52:18;;;;;;;11.68;7.40;;;;;;;4.18;70.27;94213.13;5065070;28;20032;-76
2022/02/27 10:54:46;;;;;;;12.98;6.82;;;;;;;4.18;70.06;94218.41;5065144;28;20029;-76
2022/02/27 10:57:45;;;;;;;12.05;6.97;;;;;;;4.22;69.73;94209.69;5065186;28;20025;-76
2022/02/27 11:00:22;;;;;;;11.57;6.10;;;;;;;4.16;69.95;94216.03;5057280;28;20146;-76
2022/02/27 11:03:02;;;;;;;11.77;5.55;;;;;;;4.17;68.75;94212.34;5064986;28;20013;-76
2022/02/27 11:05:30;;;;;;;7.85;4.90;;;;;;;4.16;68.79;94208.13;5063413;28;20037;-76
2022/02/27 11:07:58;;;;;;;10.90;6.63;;;;;;;4.11;69.14;94194.13;5064876;28;20357;-76
2022/02/27 11:10:26;;;;;;;14.25;7.18;;;;;;;4.13;69.20;94199.94;5064839;28;20025;-76
2022/02/27 11:12:52;;;;;;;15.18;6.53;;;;;;;4.10;69.06;94206.53;5064587;28;20068;-76
2022/02/27 11:15:20;;;;;;;14.82;6.80;;;;;;;4.10;69.18;94201.25;5064852;28;20036;-76
2022/02/27 11:17:46;;;;;;;13.43;6.55;;;;;;;4.05;68.98;94193.34;5064917;28;20231;-76
2022/02/27 11:20:13;;;;;;;19.27;7.35;;;;;;;4.05;69.13;94203.91;5064806;28;20033;-76
2022/02/27 11:22:39;;;;;;;14.70;8.18;;;;;;;4.04;69.25;94197.03;5064625;28;20028;-72